EGLL/LHR METAR and TAF weather

Enter ICAO airport designator
Station Type Date Time Source
EGLL METAR 2018/01/24 07:20 UTC NOAA

EGLL 240720Z AUTO 21018KT 7000 -RA BKN013 OVC019 12/11 Q1006


Station Type Date Time Source
EGLL Decoded METAR 2018/01/24 07:20 UTC NOAA

London / Heathrow Airport, United Kingdom (EGLL) 51-29N 000-27W 0M
Jan 24, 2018 - 02:20 AM EST / 2018.01.24 0720 UTC
Wind: from the SSW (210 degrees) at 21 MPH (18 KT):0
Visibility: 4 mile(s):0
Sky conditions: overcast
Weather: light rain
Temperature: 53 F (12 C)
Dew Point: 51 F (11 C)
Relative Humidity: 93%
Pressure (altimeter): 29.71 in. Hg (1006 hPa)
ob: EGLL 240720Z AUTO 21018KT 7000 -RA BKN013 OVC019 12/11 Q1006
cycle: 7

Station Type Date Time Source
EGLL TAF 2018/01/24 06:15 UTC NOAA

TAF EGLL 240453Z 2406/2512 21022G35KT 9999 BKN012
TEMPO 2406/2409 4000 -RADZ BKN008
TEMPO 2409/2415 7000 RA PROB30
TEMPO 2409/2413 22032G45KT 3000 +RA
BECMG 2412/2415 22012KT SCT030 PROB40
TEMPO 2415/2420 22015G25KT 7000 -SHRA PROB30
TEMPO 2509/2512 21015G25KT 7000 SHRA


Example: see airport list